Aigaion — SYMC — position and weather

sailwx.info

Track history (hours):
 
Tides and Currents Weather Stations Pressure Air Temp Water Temp Dewpoint Dewpoint Depression Visibility Wind Speed Wind Dir Waves Ship Positions

Aigaion

Last reported at 2016-Apr-25 00:24 UTC. Time now 2016-Apr-29 01:58 UTC.
Position S 15°19' E 116°26'.

Length 289 m; draft 17.8 m.

Type: Cargo ship. MMSI: 240174000.

Date/timePositionNaut miles runAvg speedWind from/ knotsBaromVisibWave heightAir tempDewpointWater temp
2016-Apr-25 00:24S 15°19' E 116°26'910.0
2016-Apr-24 23:32S 15°28' E 116°27'6310.2
2016-Apr-24 17:24S 16°30' E 116°33'910.5
2016-Apr-24 16:33S 16°39' E 116°35'1410.2
2016-Apr-24 15:09S 16°53' E 116°37'610.1
2016-Apr-24 14:32S 16°59' E 116°38'1010.2
2016-Apr-24 13:33S 17°09' E 116°39'1110.1
2016-Apr-24 12:27S 17°20' E 116°40'910.0
2016-Apr-24 11:33S 17°29' E 116°41'1010.0
2016-Apr-24 10:32S 17°39' E 116°42'10 9.8
2016-Apr-24 09:33S 17°49' E 116°42'10 9.5
2016-Apr-24 08:32S 17°59' E 116°43'10 9.8
2016-Apr-24 07:32S 18°08' E 116°44'11 9.8
2016-Apr-24 06:24S 18°19' E 116°46'910.1
2016-Apr-24 05:33S 18°28' E 116°47'10 9.8
2016-Apr-24 04:31S 18°38' E 116°48'9 9.5
2016-Apr-24 03:33S 18°47' E 116°49'21 9.7
2016-Apr-24 01:22S 19°08' E 116°51'8 9.2
2016-Apr-24 00:32S 19°16' E 116°52'9 9.2
2016-Apr-23 23:33S 19°25' E 116°52'9 9.4
2016-Apr-23 22:33S 19°34' E 116°52'10 9.6
2016-Apr-23 21:32S 19°44' E 116°52'10 9.9
2016-Apr-23 20:31S 19°54' E 116°51'1010.1
2016-Apr-23 19:33S 20°04' E 116°48'10 9.9
2016-Apr-23 18:33S 20°13' E 116°46'1010.0
2016-Apr-23 17:33S 20°23' E 116°44'1010.2
2016-Apr-23 16:33S 20°33' E 116°42'5 5.3
2016-Apr-23 15:33S 20°38' E 116°43'0 0.0
2016-Apr-22 15:13S 20°38' E 116°43'0 0.0
2016-Apr-22 14:31S 20°38' E 116°43'0 0.0
2016-Apr-22 01:09S 20°38' E 116°43'4 6.5
2016-Apr-22 00:32S 20°34' E 116°42'1110.9
2016-Apr-21 23:33S 20°23' E 116°42'7 5.5
2016-Apr-21 22:18S 20°17' E 116°44'10 9.4
2016-Apr-21 21:12S 20°07' E 116°47'46 9.6
2016-Apr-21 16:26S 19°22' E 116°52'910.2
2016-Apr-21 15:33S 19°13' E 116°52'1010.1
2016-Apr-21 14:33S 19°03' E 116°51'1010.0
2016-Apr-21 13:33S 18°53' E 116°50'  
Track history (hours):
 
Tides and Currents Weather Stations Pressure Air Temp Water Temp Dewpoint Dewpoint Depression Visibility Wind Speed Wind Dir Waves Ship Positions

Aigaion

Last reported at 2016-Apr-25 00:24 UTC. Time now 2016-Apr-29 01:58 UTC.
Position S 15°19' E 116°26'.

Length 289 m; draft 17.8 m.

Type: Cargo ship. MMSI: 240174000.

Date/timePositionNaut miles runAvg speedWind from/ knotsBaromVisibWave heightAir tempDewpointWater temp
2016-Apr-25 00:24S 15°19' E 116°26'910.0
2016-Apr-24 23:32S 15°28' E 116°27'6310.2
2016-Apr-24 17:24S 16°30' E 116°33'910.5
2016-Apr-24 16:33S 16°39' E 116°35'1410.2
2016-Apr-24 15:09S 16°53' E 116°37'610.1
2016-Apr-24 14:32S 16°59' E 116°38'1010.2
2016-Apr-24 13:33S 17°09' E 116°39'1110.1
2016-Apr-24 12:27S 17°20' E 116°40'910.0
2016-Apr-24 11:33S 17°29' E 116°41'1010.0
2016-Apr-24 10:32S 17°39' E 116°42'10 9.8
2016-Apr-24 09:33S 17°49' E 116°42'10 9.5
2016-Apr-24 08:32S 17°59' E 116°43'10 9.8
2016-Apr-24 07:32S 18°08' E 116°44'11 9.8
2016-Apr-24 06:24S 18°19' E 116°46'910.1
2016-Apr-24 05:33S 18°28' E 116°47'10 9.8
2016-Apr-24 04:31S 18°38' E 116°48'9 9.5
2016-Apr-24 03:33S 18°47' E 116°49'21 9.7
2016-Apr-24 01:22S 19°08' E 116°51'8 9.2
2016-Apr-24 00:32S 19°16' E 116°52'9 9.2
2016-Apr-23 23:33S 19°25' E 116°52'9 9.4
2016-Apr-23 22:33S 19°34' E 116°52'10 9.6
2016-Apr-23 21:32S 19°44' E 116°52'10 9.9
2016-Apr-23 20:31S 19°54' E 116°51'1010.1
2016-Apr-23 19:33S 20°04' E 116°48'10 9.9
2016-Apr-23 18:33S 20°13' E 116°46'1010.0
2016-Apr-23 17:33S 20°23' E 116°44'1010.2
2016-Apr-23 16:33S 20°33' E 116°42'5 5.3
2016-Apr-23 15:33S 20°38' E 116°43'0 0.0
2016-Apr-22 15:13S 20°38' E 116°43'0 0.0
2016-Apr-22 14:31S 20°38' E 116°43'0 0.0
2016-Apr-22 01:09S 20°38' E 116°43'4 6.5
2016-Apr-22 00:32S 20°34' E 116°42'1110.9
2016-Apr-21 23:33S 20°23' E 116°42'7 5.5
2016-Apr-21 22:18S 20°17' E 116°44'10 9.4
2016-Apr-21 21:12S 20°07' E 116°47'46 9.6
2016-Apr-21 16:26S 19°22' E 116°52'910.2
2016-Apr-21 15:33S 19°13' E 116°52'1010.1
2016-Apr-21 14:33S 19°03' E 116°51'1010.0
2016-Apr-21 13:33S 18°53' E 116°50'  

Dump ship's entire track history